sensor_id;sensor_type;location;lat;lon;timestamp;P1;durP1;ratioP1;P2;durP2;ratioP2
77597;SDS011;66756;42.774;23.354;2023-04-15T00:01:21;6.38;;;3.08;;
77597;SDS011;66756;42.774;23.354;2023-04-15T00:03:49;4.70;;;1.90;;
77597;SDS011;66756;42.774;23.354;2023-04-15T00:06:16;5.93;;;2.17;;
77597;SDS011;66756;42.774;23.354;2023-04-15T00:08:43;4.70;;;2.17;;
77597;SDS011;66756;42.774;23.354;2023-04-15T00:11:09;3.55;;;1.85;;
77597;SDS011;66756;42.774;23.354;2023-04-15T00:13:35;6.93;;;2.45;;
77597;SDS011;66756;42.774;23.354;2023-04-15T00:16:01;3.65;;;1.30;;
77597;SDS011;66756;42.774;23.354;2023-04-15T00:18:28;23.42;;;9.65;;
77597;SDS011;66756;42.774;23.354;2023-04-15T00:20:54;10.15;;;4.68;;
77597;SDS011;66756;42.774;23.354;2023-04-15T00:23:20;6.45;;;3.00;;
77597;SDS011;66756;42.774;23.354;2023-04-15T00:25:46;8.00;;;3.22;;
77597;SDS011;66756;42.774;23.354;2023-04-15T00:28:12;6.10;;;3.97;;
77597;SDS011;66756;42.774;23.354;2023-04-15T00:30:38;6.50;;;2.28;;
77597;SDS011;66756;42.774;23.354;2023-04-15T00:33:04;3.55;;;1.73;;
77597;SDS011;66756;42.774;23.354;2023-04-15T00:35:30;6.68;;;3.50;;
77597;SDS011;66756;42.774;23.354;2023-04-15T00:37:57;4.82;;;2.85;;
77597;SDS011;66756;42.774;23.354;2023-04-15T00:40:24;3.38;;;1.63;;
77597;SDS011;66756;42.774;23.354;2023-04-15T00:42:50;6.68;;;2.75;;
77597;SDS011;66756;42.774;23.354;2023-04-15T00:45:16;3.30;;;1.90;;
77597;SDS011;66756;42.774;23.354;2023-04-15T00:47:43;4.43;;;1.73;;
77597;SDS011;66756;42.774;23.354;2023-04-15T00:50:10;4.90;;;1.63;;
77597;SDS011;66756;42.774;23.354;2023-04-15T00:52:36;3.40;;;2.10;;
77597;SDS011;66756;42.774;23.354;2023-04-15T00:55:03;3.72;;;1.15;;
77597;SDS011;66756;42.774;23.354;2023-04-15T00:57:29;4.25;;;1.25;;
77597;SDS011;66756;42.774;23.354;2023-04-15T00:59:55;3.97;;;1.88;;
77597;SDS011;66756;42.774;23.354;2023-04-15T01:02:21;5.18;;;1.58;;
77597;SDS011;66756;42.774;23.354;2023-04-15T01:04:48;4.05;;;2.45;;
77597;SDS011;66756;42.774;23.354;2023-04-15T01:07:14;4.68;;;1.42;;
77597;SDS011;66756;42.774;23.354;2023-04-15T01:09:41;4.05;;;1.17;;
77597;SDS011;66756;42.774;23.354;2023-04-15T01:12:09;3.08;;;0.98;;
77597;SDS011;66756;42.774;23.354;2023-04-15T01:14:36;3.90;;;1.52;;
77597;SDS011;66756;42.774;23.354;2023-04-15T01:17:02;4.35;;;1.77;;
77597;SDS011;66756;42.774;23.354;2023-04-15T01:19:28;4.45;;;2.10;;
77597;SDS011;66756;42.774;23.354;2023-04-15T01:21:55;4.72;;;1.40;;
77597;SDS011;66756;42.774;23.354;2023-04-15T01:24:21;4.90;;;1.10;;
77597;SDS011;66756;42.774;23.354;2023-04-15T01:26:47;3.03;;;1.27;;
77597;SDS011;66756;42.774;23.354;2023-04-15T01:29:14;4.05;;;2.35;;
77597;SDS011;66756;42.774;23.354;2023-04-15T01:31:43;4.10;;;1.67;;
77597;SDS011;66756;42.774;23.354;2023-04-15T01:34:13;2.95;;;1.50;;
77597;SDS011;66756;42.774;23.354;2023-04-15T01:36:39;6.03;;;2.03;;
77597;SDS011;66756;42.774;23.354;2023-04-15T01:39:05;4.68;;;2.35;;
77597;SDS011;66756;42.774;23.354;2023-04-15T01:41:32;6.40;;;2.92;;
77597;SDS011;66756;42.774;23.354;2023-04-15T01:43:59;5.35;;;3.30;;
77597;SDS011;66756;42.774;23.354;2023-04-15T01:46:26;4.45;;;2.03;;
77597;SDS011;66756;42.774;23.354;2023-04-15T01:48:52;4.53;;;1.83;;
77597;SDS011;66756;42.774;23.354;2023-04-15T01:51:18;4.55;;;2.40;;
77597;SDS011;66756;42.774;23.354;2023-04-15T01:53:44;5.13;;;2.90;;
77597;SDS011;66756;42.774;23.354;2023-04-15T01:56:10;5.90;;;2.45;;
77597;SDS011;66756;42.774;23.354;2023-04-15T01:58:36;4.60;;;2.25;;
77597;SDS011;66756;42.774;23.354;2023-04-15T02:01:02;5.50;;;2.85;;
77597;SDS011;66756;42.774;23.354;2023-04-15T02:03:28;4.35;;;2.05;;
77597;SDS011;66756;42.774;23.354;2023-04-15T02:05:54;7.18;;;3.63;;
77597;SDS011;66756;42.774;23.354;2023-04-15T02:08:21;5.90;;;2.92;;
77597;SDS011;66756;42.774;23.354;2023-04-15T02:10:47;8.45;;;3.58;;
77597;SDS011;66756;42.774;23.354;2023-04-15T02:13:13;7.97;;;3.17;;
77597;SDS011;66756;42.774;23.354;2023-04-15T02:15:43;7.63;;;4.60;;
77597;SDS011;66756;42.774;23.354;2023-04-15T02:18:11;6.55;;;3.63;;
77597;SDS011;66756;42.774;23.354;2023-04-15T02:20:37;8.02;;;4.57;;
77597;SDS011;66756;42.774;23.354;2023-04-15T02:23:03;9.05;;;4.57;;
77597;SDS011;66756;42.774;23.354;2023-04-15T02:25:31;8.68;;;4.32;;
77597;SDS011;66756;42.774;23.354;2023-04-15T02:27:57;8.50;;;4.00;;
77597;SDS011;66756;42.774;23.354;2023-04-15T02:30:23;5.47;;;2.97;;
77597;SDS011;66756;42.774;23.354;2023-04-15T02:32:50;7.72;;;3.22;;
77597;SDS011;66756;42.774;23.354;2023-04-15T02:35:16;6.22;;;2.70;;
77597;SDS011;66756;42.774;23.354;2023-04-15T02:37:44;7.95;;;2.75;;
77597;SDS011;66756;42.774;23.354;2023-04-15T02:40:10;5.72;;;2.55;;
77597;SDS011;66756;42.774;23.354;2023-04-15T02:42:39;5.68;;;2.47;;
77597;SDS011;66756;42.774;23.354;2023-04-15T02:45:06;4.15;;;2.10;;
77597;SDS011;66756;42.774;23.354;2023-04-15T02:47:32;5.45;;;2.65;;
77597;SDS011;66756;42.774;23.354;2023-04-15T02:49:59;6.93;;;2.05;;
77597;SDS011;66756;42.774;23.354;2023-04-15T02:52:25;5.80;;;2.63;;
77597;SDS011;66756;42.774;23.354;2023-04-15T02:54:51;5.65;;;3.00;;
77597;SDS011;66756;42.774;23.354;2023-04-15T02:57:21;3.22;;;2.00;;
77597;SDS011;66756;42.774;23.354;2023-04-15T02:59:47;5.07;;;2.28;;
77597;SDS011;66756;42.774;23.354;2023-04-15T03:02:13;5.68;;;2.88;;
77597;SDS011;66756;42.774;23.354;2023-04-15T03:04:39;4.95;;;2.55;;
77597;SDS011;66756;42.774;23.354;2023-04-15T03:07:06;5.03;;;2.05;;
77597;SDS011;66756;42.774;23.354;2023-04-15T03:09:32;5.28;;;2.05;;
77597;SDS011;66756;42.774;23.354;2023-04-15T03:11:59;4.25;;;1.88;;
77597;SDS011;66756;42.774;23.354;2023-04-15T03:14:25;6.38;;;1.95;;
77597;SDS011;66756;42.774;23.354;2023-04-15T03:16:51;3.47;;;1.60;;
77597;SDS011;66756;42.774;23.354;2023-04-15T03:19:17;4.57;;;2.15;;
77597;SDS011;66756;42.774;23.354;2023-04-15T03:21:43;7.47;;;2.35;;
77597;SDS011;66756;42.774;23.354;2023-04-15T03:24:09;4.20;;;2.00;;
77597;SDS011;66756;42.774;23.354;2023-04-15T03:26:35;3.88;;;1.75;;
77597;SDS011;66756;42.774;23.354;2023-04-15T03:29:01;4.75;;;2.38;;
77597;SDS011;66756;42.774;23.354;2023-04-15T03:31:27;4.00;;;1.85;;
77597;SDS011;66756;42.774;23.354;2023-04-15T03:33:53;4.68;;;2.10;;
77597;SDS011;66756;42.774;23.354;2023-04-15T03:36:19;5.90;;;2.83;;
77597;SDS011;66756;42.774;23.354;2023-04-15T03:38:45;3.88;;;1.67;;
77597;SDS011;66756;42.774;23.354;2023-04-15T03:41:13;4.78;;;2.97;;
77597;SDS011;66756;42.774;23.354;2023-04-15T03:43:39;4.40;;;2.08;;
77597;SDS011;66756;42.774;23.354;2023-04-15T03:46:05;3.65;;;1.85;;
77597;SDS011;66756;42.774;23.354;2023-04-15T03:48:31;5.40;;;2.03;;
77597;SDS011;66756;42.774;23.354;2023-04-15T03:50:57;5.85;;;2.47;;
77597;SDS011;66756;42.774;23.354;2023-04-15T03:53:23;4.82;;;2.42;;
77597;SDS011;66756;42.774;23.354;2023-04-15T03:55:49;5.90;;;1.77;;
77597;SDS011;66756;42.774;23.354;2023-04-15T03:58:16;4.40;;;2.05;;
77597;SDS011;66756;42.774;23.354;2023-04-15T04:00:42;4.28;;;1.60;;
77597;SDS011;66756;42.774;23.354;2023-04-15T04:03:08;5.30;;;2.05;;
77597;SDS011;66756;42.774;23.354;2023-04-15T04:05:35;5.50;;;1.98;;
77597;SDS011;66756;42.774;23.354;2023-04-15T04:08:03;7.07;;;2.42;;
77597;SDS011;66756;42.774;23.354;2023-04-15T04:10:29;4.97;;;1.90;;
77597;SDS011;66756;42.774;23.354;2023-04-15T04:12:55;4.50;;;2.70;;
77597;SDS011;66756;42.774;23.354;2023-04-15T04:15:21;5.55;;;2.33;;
77597;SDS011;66756;42.774;23.354;2023-04-15T04:17:47;4.60;;;2.53;;
77597;SDS011;66756;42.774;23.354;2023-04-15T04:20:13;5.22;;;3.08;;
77597;SDS011;66756;42.774;23.354;2023-04-15T04:22:39;5.80;;;2.75;;
77597;SDS011;66756;42.774;23.354;2023-04-15T04:25:06;4.75;;;2.83;;
77597;SDS011;66756;42.774;23.354;2023-04-15T04:27:32;5.28;;;3.03;;
77597;SDS011;66756;42.774;23.354;2023-04-15T04:29:59;6.63;;;3.35;;
77597;SDS011;66756;42.774;23.354;2023-04-15T04:32:25;5.88;;;4.18;;
77597;SDS011;66756;42.774;23.354;2023-04-15T04:34:52;6.97;;;4.47;;
77597;SDS011;66756;42.774;23.354;2023-04-15T04:37:18;7.38;;;5.47;;
77597;SDS011;66756;42.774;23.354;2023-04-15T04:39:44;5.72;;;3.65;;
77597;SDS011;66756;42.774;23.354;2023-04-15T04:42:10;6.05;;;4.15;;
77597;SDS011;66756;42.774;23.354;2023-04-15T04:44:36;5.90;;;5.18;;
77597;SDS011;66756;42.774;23.354;2023-04-15T04:47:03;6.05;;;3.35;;
77597;SDS011;66756;42.774;23.354;2023-04-15T04:49:30;5.25;;;3.25;;
77597;SDS011;66756;42.774;23.354;2023-04-15T04:51:56;7.20;;;4.70;;
77597;SDS011;66756;42.774;23.354;2023-04-15T04:54:22;7.85;;;3.90;;
77597;SDS011;66756;42.774;23.354;2023-04-15T04:56:48;7.75;;;5.13;;
77597;SDS011;66756;42.774;23.354;2023-04-15T04:59:14;6.72;;;3.92;;
77597;SDS011;66756;42.774;23.354;2023-04-15T05:01:41;6.18;;;3.10;;
77597;SDS011;66756;42.774;23.354;2023-04-15T05:04:07;4.68;;;4.00;;
77597;SDS011;66756;42.774;23.354;2023-04-15T05:06:33;6.15;;;3.60;;
77597;SDS011;66756;42.774;23.354;2023-04-15T05:09:00;4.97;;;3.33;;
77597;SDS011;66756;42.774;23.354;2023-04-15T05:11:27;5.03;;;1.90;;
77597;SDS011;66756;42.774;23.354;2023-04-15T05:13:53;3.88;;;1.95;;
77597;SDS011;66756;42.774;23.354;2023-04-15T05:16:19;3.40;;;2.15;;
77597;SDS011;66756;42.774;23.354;2023-04-15T05:18:45;5.85;;;2.85;;
77597;SDS011;66756;42.774;23.354;2023-04-15T05:21:11;2.95;;;2.22;;
77597;SDS011;66756;42.774;23.354;2023-04-15T05:23:37;7.53;;;2.67;;
77597;SDS011;66756;42.774;23.354;2023-04-15T05:26:04;6.35;;;3.20;;
77597;SDS011;66756;42.774;23.354;2023-04-15T05:28:30;4.95;;;3.40;;
77597;SDS011;66756;42.774;23.354;2023-04-15T05:30:56;5.65;;;3.38;;
77597;SDS011;66756;42.774;23.354;2023-04-15T05:33:22;6.43;;;2.42;;
77597;SDS011;66756;42.774;23.354;2023-04-15T05:35:48;6.72;;;3.08;;
77597;SDS011;66756;42.774;23.354;2023-04-15T05:38:14;4.85;;;3.10;;
77597;SDS011;66756;42.774;23.354;2023-04-15T05:40:40;5.47;;;4.28;;
77597;SDS011;66756;42.774;23.354;2023-04-15T05:43:06;6.57;;;3.30;;
77597;SDS011;66756;42.774;23.354;2023-04-15T05:45:33;5.75;;;4.00;;
77597;SDS011;66756;42.774;23.354;2023-04-15T05:47:59;7.25;;;4.55;;
77597;SDS011;66756;42.774;23.354;2023-04-15T05:50:25;6.25;;;4.43;;
77597;SDS011;66756;42.774;23.354;2023-04-15T05:52:51;5.80;;;3.33;;
77597;SDS011;66756;42.774;23.354;2023-04-15T05:55:17;5.55;;;2.60;;
77597;SDS011;66756;42.774;23.354;2023-04-15T05:57:43;5.25;;;4.25;;
77597;SDS011;66756;42.774;23.354;2023-04-15T06:00:09;4.35;;;2.92;;
77597;SDS011;66756;42.774;23.354;2023-04-15T06:02:35;4.50;;;2.88;;
77597;SDS011;66756;42.774;23.354;2023-04-15T06:05:01;6.13;;;3.78;;
77597;SDS011;66756;42.774;23.354;2023-04-15T06:07:27;6.40;;;4.25;;
77597;SDS011;66756;42.774;23.354;2023-04-15T06:09:53;5.75;;;2.88;;
77597;SDS011;66756;42.774;23.354;2023-04-15T06:12:19;7.78;;;3.53;;
77597;SDS011;66756;42.774;23.354;2023-04-15T06:14:45;4.93;;;2.42;;
77597;SDS011;66756;42.774;23.354;2023-04-15T06:17:11;6.18;;;4.15;;
77597;SDS011;66756;42.774;23.354;2023-04-15T06:19:39;6.65;;;2.50;;
77597;SDS011;66756;42.774;23.354;2023-04-15T06:22:05;5.53;;;2.50;;
77597;SDS011;66756;42.774;23.354;2023-04-15T06:24:31;5.15;;;3.45;;
77597;SDS011;66756;42.774;23.354;2023-04-15T06:26:57;3.85;;;3.45;;
77597;SDS011;66756;42.774;23.354;2023-04-15T06:29:23;4.07;;;3.17;;
77597;SDS011;66756;42.774;23.354;2023-04-15T06:31:49;5.45;;;2.42;;
77597;SDS011;66756;42.774;23.354;2023-04-15T06:34:16;6.63;;;3.45;;
77597;SDS011;66756;42.774;23.354;2023-04-15T06:36:42;6.65;;;3.78;;
77597;SDS011;66756;42.774;23.354;2023-04-15T06:39:08;8.02;;;4.30;;
77597;SDS011;66756;42.774;23.354;2023-04-15T06:41:34;6.63;;;3.30;;
77597;SDS011;66756;42.774;23.354;2023-04-15T06:44:00;5.57;;;4.15;;
77597;SDS011;66756;42.774;23.354;2023-04-15T06:46:26;5.10;;;4.00;;
77597;SDS011;66756;42.774;23.354;2023-04-15T06:48:52;5.53;;;3.95;;
77597;SDS011;66756;42.774;23.354;2023-04-15T06:51:18;7.03;;;3.95;;
77597;SDS011;66756;42.774;23.354;2023-04-15T06:53:45;7.18;;;3.83;;
77597;SDS011;66756;42.774;23.354;2023-04-15T06:56:11;5.22;;;3.33;;
77597;SDS011;66756;42.774;23.354;2023-04-15T06:58:37;4.43;;;2.70;;
77597;SDS011;66756;42.774;23.354;2023-04-15T07:01:03;7.30;;;3.75;;
77597;SDS011;66756;42.774;23.354;2023-04-15T07:03:29;9.20;;;3.70;;
77597;SDS011;66756;42.774;23.354;2023-04-15T07:05:55;7.30;;;4.15;;
77597;SDS011;66756;42.774;23.354;2023-04-15T07:08:21;6.30;;;3.90;;
77597;SDS011;66756;42.774;23.354;2023-04-15T07:10:48;6.28;;;3.53;;
77597;SDS011;66756;42.774;23.354;2023-04-15T07:13:14;5.45;;;3.38;;
77597;SDS011;66756;42.774;23.354;2023-04-15T07:15:40;5.43;;;2.92;;
77597;SDS011;66756;42.774;23.354;2023-04-15T07:18:06;6.10;;;2.55;;
77597;SDS011;66756;42.774;23.354;2023-04-15T07:20:33;4.07;;;1.50;;
77597;SDS011;66756;42.774;23.354;2023-04-15T07:23:00;4.82;;;2.60;;
77597;SDS011;66756;42.774;23.354;2023-04-15T07:25:26;4.38;;;2.75;;
77597;SDS011;66756;42.774;23.354;2023-04-15T07:27:52;4.38;;;1.67;;
77597;SDS011;66756;42.774;23.354;2023-04-15T07:30:18;3.22;;;1.95;;
77597;SDS011;66756;42.774;23.354;2023-04-15T07:32:44;2.90;;;0.80;;
77597;SDS011;66756;42.774;23.354;2023-04-15T07:35:11;3.05;;;2.65;;
77597;SDS011;66756;42.774;23.354;2023-04-15T07:37:37;4.10;;;1.45;;
77597;SDS011;66756;42.774;23.354;2023-04-15T07:40:03;3.80;;;1.58;;
77597;SDS011;66756;42.774;23.354;2023-04-15T07:42:31;4.20;;;0.82;;
77597;SDS011;66756;42.774;23.354;2023-04-15T07:44:58;3.20;;;0.80;;
77597;SDS011;66756;42.774;23.354;2023-04-15T07:47:24;4.07;;;1.55;;
77597;SDS011;66756;42.774;23.354;2023-04-15T07:49:51;3.20;;;1.60;;
77597;SDS011;66756;42.774;23.354;2023-04-15T07:52:17;4.32;;;1.65;;
77597;SDS011;66756;42.774;23.354;2023-04-15T07:54:44;3.45;;;1.88;;
77597;SDS011;66756;42.774;23.354;2023-04-15T07:57:10;5.00;;;1.45;;
77597;SDS011;66756;42.774;23.354;2023-04-15T07:59:36;3.50;;;2.00;;
77597;SDS011;66756;42.774;23.354;2023-04-15T08:02:02;4.75;;;1.60;;
77597;SDS011;66756;42.774;23.354;2023-04-15T08:04:28;3.38;;;1.15;;
77597;SDS011;66756;42.774;23.354;2023-04-15T08:06:55;3.67;;;2.05;;
77597;SDS011;66756;42.774;23.354;2023-04-15T08:09:22;5.13;;;1.10;;
77597;SDS011;66756;42.774;23.354;2023-04-15T08:11:48;4.03;;;0.90;;
77597;SDS011;66756;42.774;23.354;2023-04-15T08:14:17;4.32;;;1.05;;
77597;SDS011;66756;42.774;23.354;2023-04-15T08:16:43;5.45;;;1.02;;
77597;SDS011;66756;42.774;23.354;2023-04-15T08:19:09;3.08;;;1.02;;
77597;SDS011;66756;42.774;23.354;2023-04-15T08:21:35;3.17;;;1.05;;
77597;SDS011;66756;42.774;23.354;2023-04-15T08:24:01;3.88;;;1.10;;
77597;SDS011;66756;42.774;23.354;2023-04-15T08:26:27;4.13;;;1.25;;
77597;SDS011;66756;42.774;23.354;2023-04-15T08:28:53;2.67;;;0.63;;
77597;SDS011;66756;42.774;23.354;2023-04-15T08:31:19;4.25;;;1.67;;
77597;SDS011;66756;42.774;23.354;2023-04-15T08:33:46;2.33;;;0.57;;
77597;SDS011;66756;42.774;23.354;2023-04-15T08:36:12;2.80;;;0.68;;
77597;SDS011;66756;42.774;23.354;2023-04-15T08:38:38;2.55;;;0.52;;
77597;SDS011;66756;42.774;23.354;2023-04-15T08:41:11;2.40;;;1.27;;
77597;SDS011;66756;42.774;23.354;2023-04-15T08:46:08;3.45;;;1.45;;
77597;SDS011;66756;42.774;23.354;2023-04-15T08:48:35;2.45;;;1.00;;
77597;SDS011;66756;42.774;23.354;2023-04-15T08:51:04;3.83;;;0.73;;
77597;SDS011;66756;42.774;23.354;2023-04-15T08:53:32;4.35;;;0.70;;
77597;SDS011;66756;42.774;23.354;2023-04-15T08:55:58;3.03;;;1.38;;
77597;SDS011;66756;42.774;23.354;2023-04-15T08:58:28;3.65;;;0.68;;
77597;SDS011;66756;42.774;23.354;2023-04-15T09:00:55;2.80;;;0.68;;
77597;SDS011;66756;42.774;23.354;2023-04-15T09:03:21;3.20;;;0.60;;
77597;SDS011;66756;42.774;23.354;2023-04-15T09:05:48;5.57;;;0.73;;
77597;SDS011;66756;42.774;23.354;2023-04-15T09:08:15;3.17;;;0.63;;
77597;SDS011;66756;42.774;23.354;2023-04-15T09:10:41;3.72;;;0.65;;
77597;SDS011;66756;42.774;23.354;2023-04-15T09:13:07;2.13;;;1.10;;
77597;SDS011;66756;42.774;23.354;2023-04-15T09:15:34;2.72;;;1.02;;
77597;SDS011;66756;42.774;23.354;2023-04-15T09:18:02;2.38;;;0.28;;
77597;SDS011;66756;42.774;23.354;2023-04-15T09:20:28;2.33;;;0.65;;
77597;SDS011;66756;42.774;23.354;2023-04-15T09:22:55;3.92;;;0.32;;
77597;SDS011;66756;42.774;23.354;2023-04-15T09:27:48;2.42;;;0.30;;
77597;SDS011;66756;42.774;23.354;2023-04-15T09:30:15;2.63;;;1.35;;
77597;SDS011;66756;42.774;23.354;2023-04-15T09:32:51;2.28;;;1.00;;
77597;SDS011;66756;42.774;23.354;2023-04-15T09:35:17;3.55;;;0.35;;
77597;SDS011;66756;42.774;23.354;2023-04-15T09:37:43;2.05;;;0.40;;
77597;SDS011;66756;42.774;23.354;2023-04-15T09:40:10;2.00;;;0.85;;
77597;SDS011;66756;42.774;23.354;2023-04-15T09:42:36;2.33;;;0.90;;
77597;SDS011;66756;42.774;23.354;2023-04-15T09:45:11;1.88;;;0.52;;
77597;SDS011;66756;42.774;23.354;2023-04-15T09:47:37;0.80;;;0.20;;
77597;SDS011;66756;42.774;23.354;2023-04-15T09:50:03;7.13;;;2.65;;
77597;SDS011;66756;42.774;23.354;2023-04-15T09:52:30;2.75;;;1.00;;
77597;SDS011;66756;42.774;23.354;2023-04-15T09:54:57;2.33;;;0.38;;
77597;SDS011;66756;42.774;23.354;2023-04-15T09:57:23;1.65;;;0.10;;
77597;SDS011;66756;42.774;23.354;2023-04-15T09:59:50;1.55;;;0.47;;
77597;SDS011;66756;42.774;23.354;2023-04-15T10:02:17;1.33;;;0.63;;
77597;SDS011;66756;42.774;23.354;2023-04-15T10:04:44;1.02;;;0.20;;
77597;SDS011;66756;42.774;23.354;2023-04-15T10:07:13;1.98;;;0.22;;
77597;SDS011;66756;42.774;23.354;2023-04-15T10:09:39;1.42;;;0.47;;
77597;SDS011;66756;42.774;23.354;2023-04-15T10:12:05;2.13;;;0.40;;
77597;SDS011;66756;42.774;23.354;2023-04-15T10:14:34;2.47;;;0.25;;
77597;SDS011;66756;42.774;23.354;2023-04-15T10:17:02;1.30;;;0.13;;
77597;SDS011;66756;42.774;23.354;2023-04-15T10:19:32;2.17;;;0.35;;
77597;SDS011;66756;42.774;23.354;2023-04-15T10:21:58;1.60;;;0.32;;
77597;SDS011;66756;42.774;23.354;2023-04-15T10:24:25;1.88;;;0.30;;
77597;SDS011;66756;42.774;23.354;2023-04-15T10:26:51;1.27;;;0.45;;
77597;SDS011;66756;42.774;23.354;2023-04-15T10:29:19;1.00;;;0.55;;
77597;SDS011;66756;42.774;23.354;2023-04-15T10:31:45;0.90;;;0.20;;
77597;SDS011;66756;42.774;23.354;2023-04-15T10:34:11;2.30;;;0.52;;
77597;SDS011;66756;42.774;23.354;2023-04-15T10:36:37;1.17;;;0.05;;
77597;SDS011;66756;42.774;23.354;2023-04-15T10:39:37;1.08;;;0.15;;
77597;SDS011;66756;42.774;23.354;2023-04-15T10:42:04;1.70;;;0.60;;
77597;SDS011;66756;42.774;23.354;2023-04-15T10:44:31;1.35;;;0.10;;
77597;SDS011;66756;42.774;23.354;2023-04-15T10:46:57;1.38;;;0.50;;
77597;SDS011;66756;42.774;23.354;2023-04-15T10:49:24;2.65;;;0.20;;
77597;SDS011;66756;42.774;23.354;2023-04-15T10:51:51;1.00;;;0.17;;
77597;SDS011;66756;42.774;23.354;2023-04-15T10:59:37;2.10;;;0.82;;
77597;SDS011;66756;42.774;23.354;2023-04-15T11:02:04;1.85;;;0.65;;
77597;SDS011;66756;42.774;23.354;2023-04-15T11:04:50;1.95;;;0.45;;
77597;SDS011;66756;42.774;23.354;2023-04-15T11:07:35;2.25;;;0.90;;
77597;SDS011;66756;42.774;23.354;2023-04-15T11:10:02;1.25;;;0.63;;
77597;SDS011;66756;42.774;23.354;2023-04-15T11:12:35;1.48;;;0.10;;
77597;SDS011;66756;42.774;23.354;2023-04-15T11:17:46;1.85;;;0.50;;
77597;SDS011;66756;42.774;23.354;2023-04-15T11:20:15;0.98;;;0.80;;
77597;SDS011;66756;42.774;23.354;2023-04-15T11:22:52;2.15;;;0.73;;
77597;SDS011;66756;42.774;23.354;2023-04-15T11:25:27;1.83;;;0.60;;
77597;SDS011;66756;42.774;23.354;2023-04-15T11:27:54;3.42;;;0.73;;
77597;SDS011;66756;42.774;23.354;2023-04-15T11:32:47;0.98;;;0.50;;
77597;SDS011;66756;42.774;23.354;2023-04-15T11:35:13;1.77;;;0.45;;
77597;SDS011;66756;42.774;23.354;2023-04-15T11:37:41;2.10;;;0.10;;
77597;SDS011;66756;42.774;23.354;2023-04-15T11:40:07;1.98;;;0.73;;
77597;SDS011;66756;42.774;23.354;2023-04-15T11:42:33;1.58;;;0.50;;
77597;SDS011;66756;42.774;23.354;2023-04-15T11:45:08;1.05;;;0.85;;
77597;SDS011;66756;42.774;23.354;2023-04-15T11:47:35;1.77;;;0.68;;
77597;SDS011;66756;42.774;23.354;2023-04-15T11:50:17;1.63;;;1.30;;
77597;SDS011;66756;42.774;23.354;2023-04-15T11:55:19;1.35;;;0.65;;
77597;SDS011;66756;42.774;23.354;2023-04-15T11:57:45;2.67;;;0.85;;
77597;SDS011;66756;42.774;23.354;2023-04-15T12:00:11;1.77;;;0.50;;
77597;SDS011;66756;42.774;23.354;2023-04-15T12:02:38;1.00;;;0.75;;
77597;SDS011;66756;42.774;23.354;2023-04-15T12:05:04;1.42;;;1.05;;
77597;SDS011;66756;42.774;23.354;2023-04-15T12:07:31;2.13;;;1.15;;
77597;SDS011;66756;42.774;23.354;2023-04-15T12:09:57;2.38;;;0.38;;
77597;SDS011;66756;42.774;23.354;2023-04-15T12:12:26;2.05;;;0.80;;
77597;SDS011;66756;42.774;23.354;2023-04-15T12:14:53;1.80;;;1.02;;
77597;SDS011;66756;42.774;23.354;2023-04-15T12:17:21;1.48;;;0.52;;
77597;SDS011;66756;42.774;23.354;2023-04-15T12:19:54;1.25;;;0.32;;
77597;SDS011;66756;42.774;23.354;2023-04-15T12:22:21;1.38;;;0.77;;
77597;SDS011;66756;42.774;23.354;2023-04-15T12:24:47;0.80;;;0.50;;
77597;SDS011;66756;42.774;23.354;2023-04-15T12:27:18;0.85;;;0.30;;
77597;SDS011;66756;42.774;23.354;2023-04-15T12:29:45;1.80;;;0.47;;
77597;SDS011;66756;42.774;23.354;2023-04-15T12:32:12;0.68;;;0.10;;
77597;SDS011;66756;42.774;23.354;2023-04-15T12:34:41;1.55;;;0.35;;
77597;SDS011;66756;42.774;23.354;2023-04-15T12:37:09;1.73;;;1.33;;
77597;SDS011;66756;42.774;23.354;2023-04-15T12:39:37;1.58;;;0.90;;
77597;SDS011;66756;42.774;23.354;2023-04-15T12:42:03;2.28;;;0.50;;
77597;SDS011;66756;42.774;23.354;2023-04-15T12:44:30;1.85;;;0.57;;
77597;SDS011;66756;42.774;23.354;2023-04-15T12:46:57;0.95;;;0.35;;
77597;SDS011;66756;42.774;23.354;2023-04-15T12:49:26;1.65;;;0.10;;
77597;SDS011;66756;42.774;23.354;2023-04-15T12:51:54;2.00;;;0.20;;
77597;SDS011;66756;42.774;23.354;2023-04-15T12:54:20;2.28;;;1.23;;
77597;SDS011;66756;42.774;23.354;2023-04-15T12:56:47;2.75;;;0.60;;
77597;SDS011;66756;42.774;23.354;2023-04-15T12:59:14;1.48;;;0.63;;
77597;SDS011;66756;42.774;23.354;2023-04-15T13:01:41;2.47;;;0.80;;
77597;SDS011;66756;42.774;23.354;2023-04-15T13:04:07;0.93;;;0.52;;
77597;SDS011;66756;42.774;23.354;2023-04-15T13:06:33;1.83;;;0.47;;
77597;SDS011;66756;42.774;23.354;2023-04-15T13:09:00;0.93;;;0.52;;
77597;SDS011;66756;42.774;23.354;2023-04-15T13:11:27;1.50;;;0.30;;
77597;SDS011;66756;42.774;23.354;2023-04-15T13:13:58;2.60;;;0.82;;
77597;SDS011;66756;42.774;23.354;2023-04-15T13:16:24;1.48;;;0.75;;
77597;SDS011;66756;42.774;23.354;2023-04-15T13:18:50;1.13;;;0.70;;
77597;SDS011;66756;42.774;23.354;2023-04-15T13:21:16;2.17;;;0.52;;
77597;SDS011;66756;42.774;23.354;2023-04-15T13:23:43;1.27;;;0.25;;
77597;SDS011;66756;42.774;23.354;2023-04-15T13:26:09;0.70;;;0.10;;
77597;SDS011;66756;42.774;23.354;2023-04-15T13:28:35;1.17;;;0.63;;
77597;SDS011;66756;42.774;23.354;2023-04-15T13:31:02;1.33;;;0.77;;
77597;SDS011;66756;42.774;23.354;2023-04-15T13:33:28;1.23;;;0.45;;
77597;SDS011;66756;42.774;23.354;2023-04-15T13:35:54;0.65;;;0.57;;
77597;SDS011;66756;42.774;23.354;2023-04-15T13:38:20;2.47;;;0.20;;
77597;SDS011;66756;42.774;23.354;2023-04-15T13:40:46;1.38;;;0.35;;
77597;SDS011;66756;42.774;23.354;2023-04-15T13:43:12;0.95;;;0.30;;
77597;SDS011;66756;42.774;23.354;2023-04-15T13:45:38;0.88;;;0.43;;
77597;SDS011;66756;42.774;23.354;2023-04-15T13:48:04;0.85;;;0.20;;
77597;SDS011;66756;42.774;23.354;2023-04-15T13:50:30;1.08;;;0.55;;
77597;SDS011;66756;42.774;23.354;2023-04-15T13:52:56;1.10;;;0.47;;
77597;SDS011;66756;42.774;23.354;2023-04-15T13:55:22;3.15;;;0.20;;
77597;SDS011;66756;42.774;23.354;2023-04-15T13:57:48;2.55;;;0.47;;
77597;SDS011;66756;42.774;23.354;2023-04-15T14:00:15;2.10;;;1.67;;
77597;SDS011;66756;42.774;23.354;2023-04-15T14:02:41;1.27;;;0.50;;
77597;SDS011;66756;42.774;23.354;2023-04-15T14:05:07;0.95;;;0.85;;
77597;SDS011;66756;42.774;23.354;2023-04-15T14:07:33;0.28;;;0.05;;
77597;SDS011;66756;42.774;23.354;2023-04-15T14:09:59;1.30;;;0.70;;
77597;SDS011;66756;42.774;23.354;2023-04-15T14:12:26;0.73;;;0.73;;
77597;SDS011;66756;42.774;23.354;2023-04-15T14:14:52;1.00;;;0.35;;
77597;SDS011;66756;42.774;23.354;2023-04-15T14:17:18;1.25;;;0.50;;
77597;SDS011;66756;42.774;23.354;2023-04-15T14:19:44;0.68;;;0.30;;
77597;SDS011;66756;42.774;23.354;2023-04-15T14:22:10;0.68;;;0.10;;
77597;SDS011;66756;42.774;23.354;2023-04-15T14:24:36;1.85;;;0.55;;
77597;SDS011;66756;42.774;23.354;2023-04-15T14:27:02;0.82;;;0.52;;
77597;SDS011;66756;42.774;23.354;2023-04-15T14:29:28;2.42;;;0.50;;
77597;SDS011;66756;42.774;23.354;2023-04-15T14:31:55;0.98;;;0.70;;
77597;SDS011;66756;42.774;23.354;2023-04-15T14:34:22;1.55;;;0.85;;
77597;SDS011;66756;42.774;23.354;2023-04-15T14:36:49;1.17;;;0.52;;
77597;SDS011;66756;42.774;23.354;2023-04-15T14:39:16;1.15;;;0.55;;
77597;SDS011;66756;42.774;23.354;2023-04-15T14:41:43;1.35;;;0.90;;
77597;SDS011;66756;42.774;23.354;2023-04-15T14:44:09;0.80;;;0.50;;
77597;SDS011;66756;42.774;23.354;2023-04-15T14:46:35;1.45;;;0.45;;
77597;SDS011;66756;42.774;23.354;2023-04-15T14:49:01;0.50;;;0.30;;